Time;durP1;ratioP1;P1;durP2;ratioP2;P2;SDS_P1;SDS_P2;PMS_P1;PMS_P2;Temp;Humidity;BMP_temperature;BMP_pressure;BME280_temperature;BME280_humidity;BME280_pressure;Samples;Min_cycle;Max_cycle;Signal;HPM_P1;HPM_P2
2023/09/07 00:00:46;;;;;;;5.68;2.30;;;22.80;54.20;;;;;;2513431;55;20959;-69
2023/09/07 00:03:13;;;;;;;3.95;1.87;;;22.80;54.20;;;;;;2280804;55;21070;-69
2023/09/07 00:05:39;;;;;;;3.25;1.85;;;22.80;54.30;;;;;;2504117;55;21020;-69
2023/09/07 00:08:07;;;;;;;3.80;2.22;;;22.80;54.40;;;;;;2280163;55;21012;-68
2023/09/07 00:10:36;;;;;;;3.20;2.03;;;22.70;54.30;;;;;;2507793;55;21469;-68
2023/09/07 00:13:05;;;;;;;3.50;2.15;;;22.70;54.40;;;;;;2279085;55;20999;-69
2023/09/07 00:15:36;;;;;;;4.32;2.35;;;22.70;54.50;;;;;;2281020;55;21054;-69
2023/09/07 00:18:03;;;;;;;3.67;1.93;;;22.70;54.60;;;;;;2280537;55;21254;-67
2023/09/07 00:20:29;;;;;;;4.65;2.10;;;22.60;54.60;;;;;;2281181;55;21504;-69
2023/09/07 00:22:55;;;;;;;4.12;2.20;;;22.60;54.80;;;;;;2507357;54;21834;-68
2023/09/07 00:25:22;;;;;;;3.62;2.28;;;22.60;55.00;;;;;;2509860;55;20959;-69
2023/09/07 00:27:48;;;;;;;5.03;2.62;;;22.60;55.00;;;;;;2513297;55;21358;-68
2023/09/07 00:30:15;;;;;;;4.35;2.30;;;22.60;55.20;;;;;;2281253;55;20952;-69
2023/09/07 00:32:44;;;;;;;4.00;2.30;;;22.50;55.30;;;;;;2281067;55;21006;-67
2023/09/07 00:35:10;;;;;;;3.60;2.00;;;22.50;55.20;;;;;;2513398;55;21639;-69
2023/09/07 00:37:38;;;;;;;5.12;2.42;;;22.50;55.20;;;;;;2281227;55;21779;-68
2023/09/07 00:40:08;;;;;;;3.97;2.20;;;22.50;55.30;;;;;;2512840;55;21229;-68
2023/09/07 00:42:36;;;;;;;3.80;2.25;;;22.50;55.30;;;;;;2281407;55;21445;-68
2023/09/07 00:45:03;;;;;;;3.62;2.10;;;22.50;55.30;;;;;;2513702;55;21043;-69
2023/09/07 00:47:29;;;;;;;3.92;2.20;;;22.50;55.30;;;;;;2280769;55;20975;-69
2023/09/07 00:49:55;;;;;;;4.03;2.22;;;22.50;55.40;;;;;;2280063;55;21819;-70
2023/09/07 00:52:26;;;;;;;3.67;2.28;;;22.40;55.30;;;;;;2513834;55;20964;-69
2023/09/07 00:54:52;;;;;;;4.50;2.40;;;22.40;55.40;;;;;;2513898;55;20980;-68
2023/09/07 00:57:21;;;;;;;3.60;2.08;;;22.40;55.50;;;;;;2284126;55;20983;-69
2023/09/07 00:59:47;;;;;;;3.58;1.87;;;22.40;55.60;;;;;;2502596;55;21887;-68
2023/09/07 01:02:18;;;;;;;4.55;2.40;;;22.30;55.40;;;;;;2281164;55;21372;-70
2023/09/07 01:04:44;;;;;;;3.75;2.22;;;22.30;55.40;;;;;;2513428;55;22283;-69
2023/09/07 01:07:17;;;;;;;4.05;1.92;;;22.30;55.50;;;;;;2281617;55;21551;-68
2023/09/07 01:09:46;;;;;;;3.80;2.17;;;22.30;55.60;;;;;;2513867;55;21446;-69
2023/09/07 01:12:16;;;;;;;3.50;2.40;;;22.30;55.60;;;;;;2513770;55;21004;-69
2023/09/07 01:14:42;;;;;;;3.87;2.15;;;22.20;55.50;;;;;;2279978;55;21030;-68
2023/09/07 01:17:09;;;;;;;3.20;1.87;;;22.20;55.50;;;;;;2505003;55;21059;-69
2023/09/07 01:19:35;;;;;;;3.80;1.95;;;22.20;55.50;;;;;;2279837;55;21028;-69
2023/09/07 01:22:01;;;;;;;3.78;2.25;;;22.20;55.50;;;;;;2283517;55;21011;-68
2023/09/07 01:24:29;;;;;;;3.37;1.92;;;22.10;55.50;;;;;;2504208;55;20947;-68
2023/09/07 01:26:59;;;;;;;3.60;1.95;;;22.10;55.50;;;;;;2281063;55;21038;-68
2023/09/07 01:29:29;;;;;;;4.10;2.40;;;22.10;55.50;;;;;;2281674;55;21602;-69
2023/09/07 01:31:56;;;;;;;3.28;2.20;;;22.00;55.60;;;;;;2276528;56;21027;-68
2023/09/07 01:34:23;;;;;;;3.47;2.05;;;22.00;55.70;;;;;;2510650;55;21048;-70
2023/09/07 01:36:50;;;;;;;3.80;2.30;;;22.00;55.70;;;;;;2508438;55;21050;-70
2023/09/07 01:39:19;;;;;;;5.10;2.35;;;21.90;55.60;;;;;;2280622;55;24762;-70
2023/09/07 01:41:45;;;;;;;5.07;2.40;;;21.90;55.70;;;;;;2281320;55;21034;-70
2023/09/07 01:44:14;;;;;;;3.67;2.47;;;21.90;55.80;;;;;;2281295;55;20951;-68
2023/09/07 01:46:40;;;;;;;3.90;2.08;;;21.90;55.80;;;;;;2281391;55;21019;-70
2023/09/07 01:49:07;;;;;;;4.87;2.33;;;21.80;55.70;;;;;;2513860;55;21556;-69
2023/09/07 01:51:34;;;;;;;5.12;2.03;;;21.80;55.70;;;;;;2513854;55;21016;-69
2023/09/07 01:54:02;;;;;;;4.53;2.35;;;21.80;55.70;;;;;;2514211;55;21007;-67
2023/09/07 01:56:28;;;;;;;4.22;2.58;;;21.70;55.70;;;;;;2281333;55;20968;-68
2023/09/07 01:58:55;;;;;;;3.70;2.28;;;21.70;55.70;;;;;;2280908;55;21038;-67
2023/09/07 02:01:25;;;;;;;2.85;1.73;;;21.60;55.70;;;;;;2281468;55;21011;-69
2023/09/07 02:03:52;;;;;;;3.55;2.22;;;21.60;55.70;;;;;;2281425;55;20935;-69
2023/09/07 02:06:18;;;;;;;3.72;2.10;;;21.60;55.70;;;;;;2281276;55;20887;-68
2023/09/07 02:08:44;;;;;;;4.75;2.55;;;21.50;55.80;;;;;;2280989;55;20995;-66
2023/09/07 02:11:11;;;;;;;3.78;2.25;;;21.50;55.80;;;;;;2281574;55;21027;-68
2023/09/07 02:13:37;;;;;;;4.20;2.42;;;21.50;55.80;;;;;;2281015;55;21761;-69
2023/09/07 02:16:06;;;;;;;4.87;2.40;;;21.40;55.70;;;;;;2513489;55;20948;-67
2023/09/07 02:18:33;;;;;;;4.43;2.60;;;21.40;55.80;;;;;;2280685;55;21507;-68
2023/09/07 02:21:03;;;;;;;3.62;1.83;;;21.30;55.90;;;;;;2514129;55;20947;-67
2023/09/07 02:23:31;;;;;;;3.85;2.10;;;21.30;56.00;;;;;;2513838;55;21055;-68
2023/09/07 02:25:59;;;;;;;3.47;2.17;;;21.30;56.00;;;;;;2513762;55;21043;-68
2023/09/07 02:28:28;;;;;;;4.53;2.20;;;21.20;55.90;;;;;;2278612;55;20999;-68
2023/09/07 02:30:54;;;;;;;3.80;2.00;;;21.20;55.90;;;;;;2511311;55;21027;-70
2023/09/07 02:33:20;;;;;;;3.45;1.80;;;21.20;55.90;;;;;;2281402;55;20983;-68
2023/09/07 02:35:50;;;;;;;3.47;2.10;;;21.10;55.90;;;;;;2280697;55;20967;-69
2023/09/07 02:38:16;;;;;;;3.30;1.80;;;21.10;55.90;;;;;;2514093;55;21674;-69
2023/09/07 02:40:43;;;;;;;3.20;1.70;;;21.10;55.90;;;;;;2279978;55;21787;-68
2023/09/07 02:43:12;;;;;;;3.42;1.87;;;21.00;55.80;;;;;;2277534;55;20967;-69
2023/09/07 02:45:39;;;;;;;3.65;1.90;;;21.00;55.90;;;;;;2281407;55;21460;-68
2023/09/07 02:48:05;;;;;;;4.07;2.15;;;21.00;55.90;;;;;;2280659;55;20972;-69
2023/09/07 02:50:33;;;;;;;4.80;2.17;;;20.90;56.00;;;;;;2513039;55;21702;-70
2023/09/07 02:53:00;;;;;;;4.32;2.33;;;20.90;56.00;;;;;;2278568;56;20978;-68
2023/09/07 02:55:29;;;;;;;3.45;1.73;;;20.80;55.90;;;;;;2510049;55;21011;-66
2023/09/07 02:57:56;;;;;;;3.03;1.62;;;20.80;56.10;;;;;;2513681;55;21036;-68
2023/09/07 03:00:22;;;;;;;4.45;2.05;;;20.80;56.20;;;;;;2510167;55;20963;-70
2023/09/07 03:02:49;;;;;;;3.87;2.28;;;20.70;56.00;;;;;;2276897;56;21014;-68
2023/09/07 03:05:16;;;;;;;3.37;1.92;;;20.70;56.20;;;;;;2276098;55;20971;-69
2023/09/07 03:07:45;;;;;;;3.80;1.75;;;20.60;56.10;;;;;;2514493;55;20943;-68
2023/09/07 03:10:12;;;;;;;3.37;1.92;;;20.60;56.10;;;;;;2280681;55;20932;-69
2023/09/07 03:12:38;;;;;;;3.92;1.87;;;20.60;56.10;;;;;;2514057;55;20944;-68
2023/09/07 03:15:06;;;;;;;3.30;1.87;;;20.60;56.20;;;;;;2513367;55;21004;-68
2023/09/07 03:17:32;;;;;;;3.40;1.73;;;20.50;56.20;;;;;;2281035;55;21830;-67
2023/09/07 03:19:58;;;;;;;3.28;1.70;;;20.50;56.30;;;;;;2281360;55;20979;-68
2023/09/07 03:22:25;;;;;;;3.30;1.92;;;20.50;56.30;;;;;;2513417;54;20987;-68
2023/09/07 03:24:51;;;;;;;4.15;2.35;;;20.40;56.20;;;;;;2281392;55;20983;-69
2023/09/07 03:27:18;;;;;;;3.75;2.30;;;20.40;56.50;;;;;;2513903;55;21492;-69
2023/09/07 03:29:44;;;;;;;3.70;2.15;;;20.40;56.60;;;;;;2276631;56;20992;-69
2023/09/07 03:32:13;;;;;;;3.58;1.90;;;20.30;56.50;;;;;;2513325;55;20972;-68
2023/09/07 03:34:39;;;;;;;3.80;2.20;;;20.20;56.50;;;;;;2280663;55;21019;-69
2023/09/07 03:37:06;;;;;;;4.28;1.98;;;20.30;56.50;;;;;;2280952;55;21074;-66
2023/09/07 03:39:33;;;;;;;3.50;1.90;;;20.20;56.40;;;;;;2281352;55;21043;-68
2023/09/07 03:41:59;;;;;;;3.75;2.10;;;20.20;56.40;;;;;;2281092;55;21011;-68
2023/09/07 03:44:26;;;;;;;2.95;1.50;;;20.20;56.30;;;;;;2281038;55;20991;-67
2023/09/07 03:46:52;;;;;;;3.55;1.67;;;20.20;56.40;;;;;;2514114;55;21449;-69
2023/09/07 03:49:19;;;;;;;3.55;1.80;;;20.10;56.40;;;;;;2442407;54;141594;-78
2023/09/07 03:51:45;;;;;;;3.85;1.77;;;20.10;56.40;;;;;;2229217;56;20967;-80
2023/09/07 03:54:11;;;;;;;3.30;1.85;;;20.10;56.50;;;;;;2231378;56;20955;-80
2023/09/07 03:56:39;;;;;;;3.40;1.77;;;20.00;56.50;;;;;;2462504;54;20950;-81
2023/09/07 03:59:05;;;;;;;4.43;2.05;;;20.00;56.50;;;;;;2453358;55;22010;-81
2023/09/07 04:01:31;;;;;;;3.60;1.67;;;20.00;56.50;;;;;;2453226;55;21256;-81
2023/09/07 04:03:58;;;;;;;3.22;1.83;;;19.90;56.40;;;;;;2230028;56;21159;-81
2023/09/07 04:06:24;;;;;;;2.90;1.60;;;19.90;56.40;;;;;;2452232;55;21063;-80
2023/09/07 04:08:51;;;;;;;3.30;1.85;;;19.90;56.40;;;;;;2456148;55;20937;-79
2023/09/07 04:11:17;;;;;;;3.72;1.87;;;19.90;56.40;;;;;;2456725;55;20956;-80
2023/09/07 04:13:43;;;;;;;3.12;1.70;;;19.80;56.50;;;;;;2458020;55;20949;-82
2023/09/07 04:16:10;;;;;;;4.25;1.80;;;19.70;56.60;;;;;;2459706;55;21722;-87
2023/09/07 04:18:36;;;;;;;3.42;2.00;;;19.70;56.70;;;;;;2474188;55;20976;-88
2023/09/07 04:21:08;;;;;;;3.78;2.00;;;19.70;56.70;;;;;;2461236;55;20966;-87
2023/09/07 04:23:35;;;;;;;3.72;2.17;;;19.70;56.90;;;;;;2471837;55;20996;-85
2023/09/07 04:26:11;;;;;;;3.28;1.70;;;19.70;57.00;;;;;;2459467;55;21009;-88
2023/09/07 04:28:37;;;;;;;4.53;1.98;;;19.70;57.10;;;;;;2469474;55;20960;-87
2023/09/07 04:31:04;;;;;;;3.50;1.90;;;19.60;56.90;;;;;;2240389;56;20933;-90
2023/09/07 04:33:31;;;;;;;3.40;1.95;;;19.60;56.90;;;;;;2463702;55;21572;-89
2023/09/07 04:36:11;;;;;;;3.45;2.05;;;19.60;56.90;;;;;;2243030;56;21529;-90
2023/09/07 04:38:37;;;;;;;4.50;2.00;;;19.50;56.90;;;;;;2466429;55;21000;-84
2023/09/07 04:41:13;;;;;;;3.30;1.80;;;19.50;56.90;;;;;;2247871;56;20970;-87
2023/09/07 04:43:42;;;;;;;3.17;1.85;;;19.50;56.90;;;;;;2464317;55;21085;-89
2023/09/07 04:46:12;;;;;;;3.97;2.10;;;19.50;56.80;;;;;;2492801;55;22127;-88
2023/09/07 04:48:38;;;;;;;3.47;1.73;;;19.40;56.80;;;;;;2266605;56;20963;-83
2023/09/07 04:51:05;;;;;;;3.87;1.80;;;19.40;56.80;;;;;;2495981;55;21428;-81
2023/09/07 04:53:34;;;;;;;3.92;1.92;;;19.40;56.80;;;;;;2495679;55;21518;-81
2023/09/07 04:56:01;;;;;;;2.72;1.60;;;19.30;56.80;;;;;;2495528;55;21007;-82
2023/09/07 04:58:28;;;;;;;4.12;2.03;;;19.30;56.80;;;;;;2495259;55;21879;-82
2023/09/07 05:00:54;;;;;;;3.45;2.00;;;19.30;56.90;;;;;;2266857;56;20943;-83
2023/09/07 05:03:21;;;;;;;3.58;2.12;;;19.20;56.80;;;;;;2499872;55;20966;-85
2023/09/07 05:05:52;;;;;;;3.28;1.83;;;19.20;57.00;;;;;;2272089;56;20967;-89
2023/09/07 05:08:20;;;;;;;4.28;1.87;;;19.20;57.20;;;;;;2500702;55;20942;-87
2023/09/07 05:10:48;;;;;;;4.18;2.08;;;19.20;57.20;;;;;;2272670;56;21006;-89
2023/09/07 05:13:14;;;;;;;3.80;2.30;;;19.10;57.10;;;;;;2500519;55;20931;-86
2023/09/07 05:15:48;;;;;;;4.07;2.33;;;19.10;57.10;;;;;;2500563;55;22240;-88
2023/09/07 05:18:14;;;;;;;3.65;2.25;;;19.10;57.20;;;;;;2265676;56;21092;-91
2023/09/07 05:20:41;;;;;;;4.10;2.10;;;19.10;57.20;;;;;;2336287;54;135284;-69
2023/09/07 05:23:07;;;;;;;4.00;2.33;;;19.10;57.40;;;;;;2521691;54;21411;-68
2023/09/07 05:25:33;;;;;;;3.80;2.30;;;19.10;57.40;;;;;;2285889;55;20962;-68
2023/09/07 05:28:00;;;;;;;5.05;2.67;;;19.10;57.40;;;;;;2521119;54;20954;-69
2023/09/07 05:30:26;;;;;;;2.87;1.80;;;19.00;57.40;;;;;;2520140;54;21021;-68
2023/09/07 05:32:52;;;;;;;3.92;2.22;;;19.00;57.40;;;;;;2519906;54;21717;-70
2023/09/07 05:35:20;;;;;;;4.18;2.12;;;19.00;57.50;;;;;;2286582;55;21430;-68
2023/09/07 05:37:48;;;;;;;3.83;2.30;;;19.00;57.60;;;;;;2521118;54;20934;-69
2023/09/07 05:40:14;;;;;;;4.22;2.00;;;19.00;57.60;;;;;;2522278;54;21000;-69
2023/09/07 05:42:44;;;;;;;4.10;1.92;;;19.00;57.60;;;;;;2287508;55;21010;-68
2023/09/07 05:45:12;;;;;;;4.47;2.10;;;19.00;57.60;;;;;;2290856;55;21927;-68
2023/09/07 05:47:39;;;;;;;3.78;2.15;;;19.00;57.70;;;;;;2286809;55;21021;-69
2023/09/07 05:50:06;;;;;;;3.80;2.20;;;19.00;57.70;;;;;;2286769;55;21032;-69
2023/09/07 05:52:32;;;;;;;4.30;2.55;;;19.00;57.80;;;;;;2523977;54;21012;-70
2023/09/07 05:55:03;;;;;;;3.53;2.20;;;19.00;57.80;;;;;;2521421;54;21045;-68
2023/09/07 05:57:30;;;;;;;3.80;2.37;;;19.00;58.00;;;;;;2285979;55;21845;-69
2023/09/07 05:59:59;;;;;;;3.72;2.12;;;19.00;58.00;;;;;;2522308;54;21058;-69
2023/09/07 06:02:26;;;;;;;4.82;2.37;;;19.00;58.10;;;;;;2519868;54;21030;-69
2023/09/07 06:04:53;;;;;;;4.47;2.35;;;19.00;58.20;;;;;;2286993;55;20957;-70
2023/09/07 06:07:19;;;;;;;4.03;2.58;;;19.00;58.20;;;;;;2520777;54;21429;-70
2023/09/07 06:09:49;;;;;;;4.25;2.22;;;19.00;58.20;;;;;;2521192;54;21006;-68
2023/09/07 06:12:15;;;;;;;3.53;1.92;;;19.00;58.30;;;;;;2520513;54;21017;-68
2023/09/07 06:14:42;;;;;;;3.67;2.28;;;19.10;58.40;;;;;;2524639;54;20987;-70
2023/09/07 06:17:09;;;;;;;5.70;2.67;;;19.10;58.50;;;;;;2288327;55;20994;-69
2023/09/07 06:19:35;;;;;;;3.67;2.30;;;19.10;58.60;;;;;;2290259;55;20997;-70
2023/09/07 06:22:02;;;;;;;4.57;2.33;;;19.10;58.70;;;;;;2288647;55;20948;-68
2023/09/07 06:24:28;;;;;;;4.03;2.55;;;19.10;58.80;;;;;;2519637;54;20962;-68
2023/09/07 06:26:54;;;;;;;3.60;2.20;;;19.20;59.00;;;;;;2519990;54;21869;-68
2023/09/07 06:29:21;;;;;;;4.12;2.60;;;19.20;59.10;;;;;;2286237;54;21009;-69
2023/09/07 06:31:49;;;;;;;4.47;2.78;;;19.20;59.10;;;;;;2291819;55;21117;-69
2023/09/07 06:34:16;;;;;;;4.20;2.65;;;19.30;59.30;;;;;;2287615;55;20925;-70
2023/09/07 06:36:42;;;;;;;3.65;2.20;;;19.30;59.40;;;;;;2285327;55;21037;-69
2023/09/07 06:39:13;;;;;;;5.40;3.22;;;19.40;59.50;;;;;;2292681;55;21023;-69
2023/09/07 06:41:41;;;;;;;5.90;3.90;;;19.40;59.60;;;;;;2520235;54;21009;-69
2023/09/07 06:44:11;;;;;;;5.82;3.80;;;19.50;59.90;;;;;;2521060;54;20966;-69
2023/09/07 06:46:37;;;;;;;4.97;3.25;;;19.50;60.00;;;;;;2286438;55;21013;-69
2023/09/07 06:49:04;;;;;;;5.30;3.30;;;19.60;60.00;;;;;;2520717;54;20929;-69
2023/09/07 06:51:33;;;;;;;4.85;3.35;;;19.70;60.20;;;;;;2521349;54;21008;-70
2023/09/07 06:54:00;;;;;;;5.65;3.00;;;19.70;60.40;;;;;;2522790;54;20934;-69
2023/09/07 06:56:30;;;;;;;5.93;3.15;;;19.80;60.40;;;;;;2286353;55;20962;-71
2023/09/07 06:58:56;;;;;;;5.22;3.30;;;19.90;60.50;;;;;;2287047;55;20950;-69
2023/09/07 07:01:23;;;;;;;5.15;3.10;;;19.90;60.40;;;;;;2295738;55;22064;-69
2023/09/07 07:03:49;;;;;;;3.97;2.78;;;20.00;60.60;;;;;;2521680;54;20974;-72
2023/09/07 07:06:16;;;;;;;4.65;2.80;;;20.10;60.70;;;;;;2286643;55;20989;-70
2023/09/07 07:08:42;;;;;;;4.50;3.10;;;20.20;60.70;;;;;;2519567;54;20986;-70
2023/09/07 07:11:11;;;;;;;5.20;2.87;;;20.20;60.70;;;;;;2520684;54;20962;-69
2023/09/07 07:13:38;;;;;;;6.00;3.08;;;20.40;60.80;;;;;;2520186;54;21922;-70
2023/09/07 07:16:04;;;;;;;6.20;3.72;;;20.40;60.80;;;;;;2286930;55;20929;-70
2023/09/07 07:18:36;;;;;;;5.97;2.78;;;20.50;61.20;;;;;;2521284;54;20934;-70
2023/09/07 07:21:02;;;;;;;8.55;3.45;;;20.60;61.30;;;;;;2292639;55;20993;-71
2023/09/07 07:23:29;;;;;;;5.68;3.50;;;20.60;61.30;;;;;;2522227;54;20938;-70
2023/09/07 07:25:55;;;;;;;5.37;3.53;;;20.70;61.40;;;;;;2521465;54;20928;-69
2023/09/07 07:28:21;;;;;;;4.82;3.20;;;20.80;61.50;;;;;;2520897;54;20954;-70
2023/09/07 07:30:48;;;;;;;5.37;3.35;;;20.90;61.40;;;;;;2520021;54;20974;-70
2023/09/07 07:33:15;;;;;;;5.07;3.28;;;21.00;61.40;;;;;;2520356;54;20989;-68
2023/09/07 07:35:42;;;;;;;6.68;3.42;;;21.00;61.30;;;;;;2520297;54;20989;-68
2023/09/07 07:38:08;;;;;;;4.65;3.45;;;21.10;61.30;;;;;;2520917;54;20962;-69
2023/09/07 07:40:34;;;;;;;5.90;3.20;;;21.20;61.40;;;;;;2286709;55;21417;-69
2023/09/07 07:43:01;;;;;;;4.78;2.97;;;21.30;61.40;;;;;;2287278;55;21006;-67
2023/09/07 07:45:27;;;;;;;5.50;3.67;;;21.40;61.40;;;;;;2286411;55;20954;-70
2023/09/07 07:47:56;;;;;;;5.65;3.12;;;21.50;61.40;;;;;;2287470;55;20954;-69
2023/09/07 07:50:23;;;;;;;4.90;2.80;;;21.50;61.30;;;;;;2522657;54;21472;-69
2023/09/07 07:52:49;;;;;;;4.60;2.83;;;21.60;61.30;;;;;;2522173;54;20974;-69
2023/09/07 07:55:16;;;;;;;6.37;3.17;;;21.70;61.30;;;;;;2520862;54;20998;-68
2023/09/07 07:57:42;;;;;;;5.10;3.30;;;21.80;61.30;;;;;;2286293;55;20982;-69
2023/09/07 08:00:09;;;;;;;5.15;3.30;;;21.90;61.40;;;;;;2288945;55;21728;-69
2023/09/07 08:02:35;;;;;;;6.03;3.80;;;21.90;61.30;;;;;;2520888;54;21717;-69
2023/09/07 08:05:02;;;;;;;4.68;3.30;;;22.00;61.40;;;;;;2523526;54;21012;-69
2023/09/07 08:07:28;;;;;;;6.28;3.25;;;22.10;61.40;;;;;;2286382;55;20969;-69
2023/09/07 08:09:56;;;;;;;5.82;2.97;;;22.20;61.40;;;;;;2520838;54;20957;-68
2023/09/07 08:12:23;;;;;;;6.40;3.85;;;22.30;61.40;;;;;;2286225;55;20958;-70
2023/09/07 08:14:49;;;;;;;5.95;4.05;;;22.30;61.50;;;;;;2285710;55;20950;-69
2023/09/07 08:17:15;;;;;;;5.40;3.85;;;22.40;61.80;;;;;;2521578;54;21001;-69
2023/09/07 08:19:43;;;;;;;6.15;3.92;;;22.50;61.90;;;;;;2520613;54;20998;-69
2023/09/07 08:22:09;;;;;;;4.60;3.47;;;22.60;61.90;;;;;;2287299;55;21013;-69
2023/09/07 08:24:36;;;;;;;4.62;3.15;;;22.70;61.80;;;;;;2520219;54;20954;-67
2023/09/07 08:27:05;;;;;;;5.90;2.97;;;22.70;61.80;;;;;;2520962;54;20970;-69
2023/09/07 08:29:32;;;;;;;4.70;2.78;;;22.80;61.90;;;;;;2271722;55;21061;-69
2023/09/07 08:32:03;;;;;;;4.62;2.92;;;22.90;61.90;;;;;;2521085;54;21013;-69
2023/09/07 08:34:30;;;;;;;6.18;3.05;;;23.00;61.80;;;;;;2520616;54;20966;-70
2023/09/07 08:36:58;;;;;;;5.45;2.97;;;23.10;61.80;;;;;;2287354;55;20978;-68
2023/09/07 08:39:25;;;;;;;5.53;3.45;;;23.20;61.80;;;;;;2286714;55;21005;-70
2023/09/07 08:41:51;;;;;;;4.78;3.35;;;23.30;61.80;;;;;;2286322;55;21040;-68
2023/09/07 08:44:26;;;;;;;4.85;3.35;;;23.40;61.90;;;;;;2520345;54;20927;-68
2023/09/07 08:46:56;;;;;;;4.90;3.22;;;23.50;61.80;;;;;;2522074;54;20995;-70
2023/09/07 08:49:25;;;;;;;5.55;3.40;;;23.60;61.70;;;;;;2287544;55;20937;-66
2023/09/07 08:51:52;;;;;;;6.03;3.65;;;23.60;61.60;;;;;;2286934;55;20993;-68
2023/09/07 08:54:18;;;;;;;5.15;3.72;;;23.80;61.90;;;;;;2286864;55;20933;-69
2023/09/07 08:56:45;;;;;;;6.57;3.70;;;23.80;61.80;;;;;;2519787;54;20942;-69
2023/09/07 08:59:12;;;;;;;4.85;3.17;;;23.90;61.70;;;;;;2286797;55;20986;-70
2023/09/07 09:01:39;;;;;;;4.12;2.97;;;24.00;61.70;;;;;;2520137;54;20926;-67
2023/09/07 09:04:06;;;;;;;5.07;3.35;;;24.10;61.70;;;;;;2286306;55;21037;-69
2023/09/07 09:06:32;;;;;;;5.45;3.03;;;24.20;61.60;;;;;;2286555;55;20941;-70
2023/09/07 09:08:58;;;;;;;5.03;3.17;;;24.30;61.60;;;;;;2286875;55;20946;-69
2023/09/07 09:11:25;;;;;;;4.70;3.30;;;24.40;61.60;;;;;;2286964;55;20933;-67
2023/09/07 09:13:53;;;;;;;5.30;3.60;;;24.40;61.50;;;;;;2520161;54;21006;-69
2023/09/07 09:16:19;;;;;;;4.65;3.20;;;24.60;61.70;;;;;;2286614;55;20962;-69
2023/09/07 09:18:58;;;;;;;5.95;3.35;;;24.60;61.50;;;;;;2520440;54;20962;-70
2023/09/07 09:21:26;;;;;;;4.68;3.08;;;24.70;61.10;;;;;;2286072;55;20918;-66
2023/09/07 09:23:53;;;;;;;4.22;2.83;;;24.80;61.20;;;;;;2287000;55;20957;-69
2023/09/07 09:26:19;;;;;;;5.53;3.12;;;24.90;61.10;;;;;;2286869;55;20941;-69
2023/09/07 09:28:46;;;;;;;4.93;3.35;;;25.00;61.00;;;;;;2286666;55;21021;-69
2023/09/07 09:31:13;;;;;;;6.15;3.08;;;25.00;60.70;;;;;;2520483;54;21057;-69
2023/09/07 09:33:42;;;;;;;4.40;3.10;;;25.10;60.70;;;;;;2286336;55;21857;-70
2023/09/07 09:36:09;;;;;;;5.18;3.45;;;25.20;60.90;;;;;;2520758;54;21013;-69
2023/09/07 09:38:35;;;;;;;4.75;3.00;;;25.30;60.90;;;;;;2520158;54;20930;-69
2023/09/07 09:41:03;;;;;;;5.00;2.97;;;25.40;60.70;;;;;;2287135;55;21802;-69
2023/09/07 09:43:30;;;;;;;4.50;2.90;;;25.40;60.40;;;;;;2286761;55;21029;-69
2023/09/07 09:45:56;;;;;;;4.70;2.78;;;25.50;60.20;;;;;;2291118;55;20999;-69
2023/09/07 09:48:23;;;;;;;4.40;2.65;;;25.60;60.00;;;;;;2520429;54;21741;-70
2023/09/07 09:50:50;;;;;;;4.43;2.75;;;25.60;59.80;;;;;;2286206;55;20989;-68
2023/09/07 09:53:22;;;;;;;3.70;2.50;;;25.70;59.60;;;;;;2520737;54;20958;-69
2023/09/07 09:55:49;;;;;;;3.60;2.42;;;25.80;59.40;;;;;;2286699;55;21050;-68
2023/09/07 09:58:16;;;;;;;4.70;2.53;;;25.80;59.40;;;;;;2522108;54;21011;-70
2023/09/07 10:00:56;;;;;;;4.07;2.60;;;25.90;59.30;;;;;;2287993;55;20969;-70
2023/09/07 10:03:34;;;;;;;4.00;2.58;;;26.00;59.20;;;;;;2522085;54;20995;-69
2023/09/07 10:06:11;;;;;;;4.95;2.60;;;26.00;59.00;;;;;;2293517;55;21345;-70
2023/09/07 10:08:37;;;;;;;4.00;2.58;;;26.10;58.90;;;;;;2292416;55;21051;-70
2023/09/07 10:11:09;;;;;;;3.95;2.53;;;26.10;59.00;;;;;;2287749;55;20966;-69
2023/09/07 10:13:37;;;;;;;4.80;2.47;;;26.20;58.80;;;;;;2286515;55;20928;-69
2023/09/07 10:16:07;;;;;;;4.97;2.70;;;26.30;58.90;;;;;;2291545;55;21037;-70
2023/09/07 10:18:35;;;;;;;3.78;2.60;;;26.30;58.90;;;;;;2292727;55;21037;-71
2023/09/07 10:21:02;;;;;;;3.97;2.22;;;26.40;58.70;;;;;;2522335;54;21000;-69
2023/09/07 10:24:02;;;;;;;3.80;2.42;;;26.50;58.60;;;;;;2522472;54;20914;-68
2023/09/07 10:26:28;;;;;;;4.25;2.35;;;26.60;58.40;;;;;;2521451;54;21348;-68
2023/09/07 10:29:03;;;;;;;3.83;2.60;;;26.60;58.70;;;;;;2286727;55;22019;-68
2023/09/07 10:31:32;;;;;;;3.60;2.35;;;26.70;58.40;;;;;;2521060;54;20997;-68
2023/09/07 10:34:10;;;;;;;4.90;2.20;;;26.70;58.50;;;;;;2286823;55;20970;-70
2023/09/07 10:36:37;;;;;;;3.93;2.37;;;26.80;58.40;;;;;;2286569;55;21005;-68
2023/09/07 10:39:07;;;;;;;4.03;2.70;;;26.90;58.40;;;;;;2521147;54;21029;-67
2023/09/07 10:41:43;;;;;;;3.78;2.60;;;26.90;58.50;;;;;;2287103;55;21061;-68
2023/09/07 10:44:13;;;;;;;3.72;2.65;;;27.00;58.00;;;;;;2293741;55;21012;-68
2023/09/07 10:46:40;;;;;;;4.05;2.42;;;27.10;58.30;;;;;;2520336;54;21414;-68
2023/09/07 10:49:11;;;;;;;3.37;2.22;;;27.20;58.30;;;;;;2520871;54;20966;-68
2023/09/07 10:51:46;;;;;;;3.67;2.30;;;27.30;58.00;;;;;;2287428;55;21021;-68
2023/09/07 10:54:17;;;;;;;4.12;2.40;;;27.30;57.60;;;;;;2519980;54;21023;-69
2023/09/07 10:56:46;;;;;;;3.58;2.28;;;27.40;57.80;;;;;;2286476;55;21033;-68
2023/09/07 10:59:14;;;;;;;3.47;2.28;;;27.40;57.80;;;;;;2521562;54;21038;-68
2023/09/07 11:01:41;;;;;;;3.90;2.25;;;27.50;57.80;;;;;;2286388;55;20990;-68
2023/09/07 11:04:10;;;;;;;3.83;2.25;;;27.60;57.80;;;;;;2292919;55;21015;-68
2023/09/07 11:06:40;;;;;;;3.70;2.33;;;27.70;57.70;;;;;;2519980;54;20969;-70
2023/09/07 11:09:10;;;;;;;3.90;2.50;;;27.70;57.60;;;;;;2292067;55;20987;-69
2023/09/07 11:11:36;;;;;;;5.12;2.28;;;27.80;57.30;;;;;;2287468;55;20950;-66
2023/09/07 11:14:04;;;;;;;3.97;2.67;;;27.90;57.10;;;;;;2520752;54;20981;-68
2023/09/07 11:16:30;;;;;;;4.65;3.00;;;28.00;57.20;;;;;;2286615;55;21030;-68
2023/09/07 11:18:58;;;;;;;3.60;2.20;;;28.00;56.90;;;;;;2522892;54;21619;-67
2023/09/07 11:21:25;;;;;;;4.00;2.30;;;28.10;56.90;;;;;;2288497;55;21017;-67
2023/09/07 11:23:57;;;;;;;3.58;2.08;;;28.20;56.70;;;;;;2522447;54;20998;-68
2023/09/07 11:26:23;;;;;;;5.75;2.28;;;28.30;56.60;;;;;;2523273;54;21000;-69
2023/09/07 11:28:49;;;;;;;6.15;2.35;;;28.30;56.40;;;;;;2288357;55;21014;-68
2023/09/07 11:31:19;;;;;;;3.33;1.95;;;28.40;56.30;;;;;;2287055;55;20946;-69
2023/09/07 11:33:46;;;;;;;3.35;1.92;;;28.40;56.00;;;;;;2286617;55;21521;-68
2023/09/07 11:36:13;;;;;;;4.68;2.35;;;28.50;56.10;;;;;;2287393;55;20990;-68
2023/09/07 11:38:42;;;;;;;3.75;2.20;;;28.60;56.10;;;;;;2287331;55;20921;-66
2023/09/07 11:41:09;;;;;;;3.10;2.05;;;28.60;55.90;;;;;;2521300;54;20962;-68
2023/09/07 11:43:37;;;;;;;3.03;2.00;;;28.70;55.90;;;;;;2286822;55;20933;-68
2023/09/07 11:46:03;;;;;;;3.30;2.12;;;28.80;55.90;;;;;;2520745;54;21029;-69
2023/09/07 11:48:32;;;;;;;4.15;2.20;;;28.80;55.60;;;;;;2520611;54;20962;-67
2023/09/07 11:50:58;;;;;;;3.10;1.92;;;28.90;55.40;;;;;;2521067;54;20925;-68
2023/09/07 11:53:25;;;;;;;4.50;2.20;;;29.00;55.20;;;;;;2520797;54;21024;-70
2023/09/07 11:55:51;;;;;;;3.55;1.75;;;29.00;54.70;;;;;;2286746;55;20961;-69
2023/09/07 11:58:18;;;;;;;3.45;2.15;;;29.10;54.80;;;;;;2520762;54;21783;-68
2023/09/07 12:00:44;;;;;;;2.95;1.70;;;29.10;54.70;;;;;;2519339;54;21005;-68
2023/09/07 12:03:10;;;;;;;3.85;2.15;;;29.20;54.80;;;;;;2523733;54;21056;-69
2023/09/07 12:05:38;;;;;;;5.53;2.00;;;29.30;54.80;;;;;;2286708;55;20958;-68
2023/09/07 12:08:05;;;;;;;3.50;2.00;;;29.30;54.60;;;;;;2286906;55;20985;-67
2023/09/07 12:10:32;;;;;;;3.25;2.05;;;29.40;54.50;;;;;;2286912;55;20925;-67
2023/09/07 12:12:58;;;;;;;3.50;1.87;;;29.40;54.40;;;;;;2522991;54;20972;-68
2023/09/07 12:15:24;;;;;;;3.25;1.70;;;29.50;54.40;;;;;;2287077;55;20951;-67
2023/09/07 12:17:54;;;;;;;3.30;2.03;;;29.60;54.20;;;;;;2290976;55;20967;-66
2023/09/07 12:20:21;;;;;;;3.87;2.00;;;29.60;54.30;;;;;;2287073;55;20942;-67
2023/09/07 12:22:48;;;;;;;3.28;1.98;;;29.70;54.00;;;;;;2522610;54;20978;-67
2023/09/07 12:25:15;;;;;;;3.17;1.80;;;29.80;54.60;;;;;;2286837;55;21005;-70
2023/09/07 12:27:46;;;;;;;3.53;2.05;;;29.80;53.80;;;;;;2520714;54;21024;-68
2023/09/07 12:30:18;;;;;;;3.75;2.37;;;29.80;53.50;;;;;;2521063;54;20965;-69
2023/09/07 12:32:44;;;;;;;3.30;2.00;;;29.90;53.30;;;;;;2520414;54;21498;-67
2023/09/07 12:35:10;;;;;;;5.12;2.33;;;29.90;53.20;;;;;;2520943;54;21553;-67
2023/09/07 12:37:37;;;;;;;3.47;2.15;;;30.00;53.20;;;;;;2286908;55;20958;-69
2023/09/07 12:40:12;;;;;;;4.30;2.37;;;30.00;53.20;;;;;;2286731;55;21030;-68
2023/09/07 12:42:40;;;;;;;3.15;2.10;;;30.10;53.00;;;;;;2520760;54;20991;-66
2023/09/07 12:45:09;;;;;;;3.28;2.00;;;30.10;52.80;;;;;;2286897;55;21072;-67
2023/09/07 12:47:35;;;;;;;3.20;1.90;;;30.10;52.50;;;;;;2286471;55;20966;-68
2023/09/07 12:50:02;;;;;;;3.75;2.00;;;30.20;52.30;;;;;;2286147;55;21045;-69